Time;durP1;ratioP1;P1;durP2;ratioP2;P2;SDS_P1;SDS_P2;PMS_P1;PMS_P2;Temp;Humidity;BMP_temperature;BMP_pressure;BME280_temperature;BME280_humidity;BME280_pressure;Samples;Min_cycle;Max_cycle;Signal;HPM_P1;HPM_P2
2021/07/03 00:01:47;;;;;;;5.05;3.28;;;;;;;20.97;58.38;99709.72;3621295;39;20032;-53
2021/07/03 00:04:35;;;;;;;3.72;3.28;;;;;;;20.97;58.71;99715.06;3620336;39;20038;-54
2021/07/03 00:07:20;;;;;;;7.22;3.50;;;;;;;20.97;58.53;99715.91;3620885;39;20046;-50
2021/07/03 00:10:07;;;;;;;5.72;3.60;;;;;;;20.97;58.50;99707.06;3621765;39;20710;-53
2021/07/03 00:12:53;;;;;;;5.57;3.58;;;;;;;20.96;58.65;99706.22;3623003;39;20061;-51
2021/07/03 00:15:39;;;;;;;5.65;3.95;;;;;;;20.96;58.89;99716.88;3624110;39;20111;-50
2021/07/03 00:18:26;;;;;;;6.13;4.03;;;;;;;20.97;59.32;99715.06;3614278;39;20041;-53
2021/07/03 00:21:13;;;;;;;5.88;4.25;;;;;;;20.96;59.14;99721.38;3623892;39;20042;-54
2021/07/03 00:23:59;;;;;;;6.43;4.20;;;;;;;20.95;59.98;99715.19;3621547;39;20091;-53
2021/07/03 00:26:46;;;;;;;7.93;4.05;;;;;;;20.93;59.85;99711.84;3621705;39;20055;-53
2021/07/03 00:29:32;;;;;;;4.85;4.00;;;;;;;20.91;59.71;99703.13;3615116;39;20063;-50
2021/07/03 00:32:22;;;;;;;4.13;3.43;;;;;;;20.91;60.24;99703.13;3616636;39;20123;-49
2021/07/03 00:35:09;;;;;;;7.38;4.28;;;;;;;20.89;60.60;99705.09;3622173;39;20688;-51
2021/07/03 00:37:57;;;;;;;5.40;4.15;;;;;;;20.89;60.75;99690.94;3623307;39;20078;-50
2021/07/03 00:40:44;;;;;;;7.57;4.50;;;;;;;20.87;60.52;99698.22;3621232;39;20042;-51
2021/07/03 00:43:30;;;;;;;5.78;4.85;;;;;;;20.85;60.52;99693.03;3624367;39;20090;-52
2021/07/03 00:46:16;;;;;;;5.50;4.72;;;;;;;20.84;61.12;99690.53;3621979;39;20080;-50
2021/07/03 00:49:02;;;;;;;5.68;4.88;;;;;;;20.82;61.30;99692.44;3620974;39;20116;-49
2021/07/03 00:51:48;;;;;;;6.55;4.47;;;;;;;20.79;61.43;99687.41;3615027;39;20108;-52
2021/07/03 00:54:37;;;;;;;9.57;4.65;;;;;;;20.75;61.07;99692.16;3622263;39;20116;-50
2021/07/03 00:57:23;;;;;;;4.82;4.07;;;;;;;20.73;61.56;99696.78;3623757;39;20045;-52
2021/07/03 01:00:10;;;;;;;5.60;4.40;;;;;;;20.72;61.71;99686.28;3623863;39;20092;-50
2021/07/03 01:02:56;;;;;;;4.68;4.03;;;;;;;20.69;61.57;99698.91;3621829;39;20042;-48
2021/07/03 01:05:42;;;;;;;8.82;5.05;;;;;;;20.67;61.70;99697.34;3620539;39;20034;-51
2021/07/03 01:08:28;;;;;;;6.43;4.00;;;;;;;20.67;61.65;99697.34;3622526;39;20041;-54
2021/07/03 01:11:26;;;;;;;6.05;4.40;;;;;;;20.64;61.45;99694.97;3623416;39;20041;-51
2021/07/03 01:14:13;;;;;;;5.50;4.32;;;;;;;20.63;61.58;99693.28;3623318;39;20290;-53
2021/07/03 01:16:59;;;;;;;5.38;4.55;;;;;;;20.60;62.15;99689.03;3620188;39;20042;-57
2021/07/03 01:19:45;;;;;;;6.00;4.65;;;;;;;20.59;61.84;99681.19;3621353;39;20129;-57
2021/07/03 01:22:34;;;;;;;6.20;4.22;;;;;;;20.57;62.33;99684.00;3622382;39;20460;-58
2021/07/03 01:25:20;;;;;;;5.60;4.30;;;;;;;20.57;61.83;99677.81;3620258;39;20034;-54
2021/07/03 01:28:07;;;;;;;6.15;4.38;;;;;;;20.57;62.45;99677.81;3621077;39;20379;-56
2021/07/03 01:30:53;;;;;;;5.43;4.25;;;;;;;20.54;61.93;99676.28;3620544;39;20029;-55
2021/07/03 01:33:39;;;;;;;5.65;4.32;;;;;;;20.54;62.50;99675.44;3620744;39;20096;-56
2021/07/03 01:36:25;;;;;;;4.70;4.20;;;;;;;20.54;61.95;99675.44;3620649;39;20425;-56
2021/07/03 01:39:13;;;;;;;6.40;4.40;;;;;;;20.52;62.19;99670.25;3620535;39;20128;-53
2021/07/03 01:42:00;;;;;;;6.55;4.63;;;;;;;20.52;62.01;99672.06;3620757;39;20038;-53
2021/07/03 01:44:46;;;;;;;6.30;4.47;;;;;;;20.49;62.25;99667.88;3621367;39;20124;-56
2021/07/03 01:47:32;;;;;;;4.63;4.15;;;;;;;20.48;62.29;99676.00;3619467;39;20356;-55
2021/07/03 01:50:18;;;;;;;7.47;4.60;;;;;;;20.46;62.25;99675.28;3620298;39;20038;-50
2021/07/03 01:53:04;;;;;;;8.68;4.47;;;;;;;20.45;62.31;99678.94;3622893;39;20046;-48
2021/07/03 01:55:53;;;;;;;6.18;4.68;;;;;;;20.45;62.44;99673.59;3624032;39;20037;-53
2021/07/03 01:58:40;;;;;;;6.57;4.93;;;;;;;20.43;62.35;99668.41;3623032;39;20041;-54
2021/07/03 02:01:26;;;;;;;9.60;5.22;;;;;;;20.43;62.89;99673.75;3622312;39;20119;-49
2021/07/03 02:04:12;;;;;;;7.95;6.13;;;;;;;20.40;62.93;99666.84;3622421;39;20034;-49
2021/07/03 02:06:58;;;;;;;8.63;5.50;;;;;;;20.37;63.02;99667.09;3620967;39;20115;-52
2021/07/03 02:09:44;;;;;;;6.15;5.30;;;;;;;20.36;62.65;99668.06;3620980;39;20356;-50
2021/07/03 02:12:32;;;;;;;8.30;5.55;;;;;;;20.36;63.14;99673.38;3620602;39;20088;-48
2021/07/03 02:15:18;;;;;;;9.30;5.80;;;;;;;20.36;62.86;99669.88;3619750;39;20038;-51
2021/07/03 02:18:04;;;;;;;9.48;5.95;;;;;;;20.36;63.09;99670.72;3620483;39;20380;-50
2021/07/03 02:20:50;;;;;;;7.53;6.10;;;;;;;20.36;63.27;99665.41;3620400;39;20420;-48
2021/07/03 02:23:36;;;;;;;8.65;5.70;;;;;;;20.37;63.39;99671.56;3620176;39;20042;-48
2021/07/03 02:26:23;;;;;;;10.10;5.57;;;;;;;20.37;62.91;99668.91;3620377;39;20042;-47
2021/07/03 02:29:10;;;;;;;8.20;5.32;;;;;;;20.36;63.03;99665.41;3621441;39;20034;-50
2021/07/03 02:31:57;;;;;;;7.97;5.55;;;;;;;20.37;63.15;99671.56;3621140;39;20047;-50
2021/07/03 02:34:43;;;;;;;8.07;5.40;;;;;;;20.35;63.54;99668.19;3622449;39;20409;-52
2021/07/03 02:37:30;;;;;;;7.43;5.90;;;;;;;20.34;63.67;99667.34;3621988;39;20308;-51
2021/07/03 02:40:19;;;;;;;7.85;5.50;;;;;;;20.31;63.90;99659.66;3621422;39;20031;-50
2021/07/03 02:43:07;;;;;;;7.65;5.38;;;;;;;20.28;64.23;99672.38;3614014;39;20059;-48
2021/07/03 02:45:55;;;;;;;7.03;5.07;;;;;;;20.24;64.27;99670.97;3622007;39;20054;-48
2021/07/03 02:48:42;;;;;;;8.60;5.15;;;;;;;20.21;64.23;99673.91;3622193;39;20072;-52
2021/07/03 02:51:28;;;;;;;6.93;4.93;;;;;;;20.17;64.73;99668.00;3622030;39;20042;-53
2021/07/03 02:54:14;;;;;;;7.80;5.30;;;;;;;20.14;65.09;99670.91;3622082;39;20098;-50
2021/07/03 02:57:00;;;;;;;8.30;5.50;;;;;;;20.12;65.00;99672.03;3621766;39;20275;-51
2021/07/03 02:59:46;;;;;;;6.90;5.55;;;;;;;20.09;65.22;99671.31;3623159;39;20384;-54
2021/07/03 03:02:33;;;;;;;8.10;5.28;;;;;;;20.07;64.98;99675.09;3621987;39;20071;-54
2021/07/03 03:05:19;;;;;;;7.82;5.57;;;;;;;20.04;65.60;99670.88;3613932;39;20034;-53
2021/07/03 03:08:05;;;;;;;6.25;5.18;;;;;;;20.04;65.77;99681.53;3622197;39;20343;-51
2021/07/03 03:10:51;;;;;;;7.13;5.35;;;;;;;20.04;66.04;99676.22;3622049;39;20049;-52
2021/07/03 03:13:40;;;;;;;7.13;5.55;;;;;;;20.03;65.88;99677.19;3621023;39;20133;-54
2021/07/03 03:16:27;;;;;;;6.68;5.60;;;;;;;20.02;65.95;99672.84;3621861;39;20042;-53
2021/07/03 03:19:14;;;;;;;6.47;5.18;;;;;;;20.00;66.03;99674.81;3621744;39;20295;-50
2021/07/03 03:22:00;;;;;;;6.80;5.22;;;;;;;19.98;65.92;99675.88;3621775;39;20392;-56
2021/07/03 03:24:46;;;;;;;6.10;5.28;;;;;;;19.96;65.61;99688.47;3622433;39;20108;-55
2021/07/03 03:27:33;;;;;;;6.28;5.63;;;;;;;19.94;66.14;99685.09;3620805;39;20042;-50
2021/07/03 03:30:20;;;;;;;6.35;5.65;;;;;;;19.95;65.84;99687.63;3625593;39;20445;-51
2021/07/03 03:33:05;;;;;;;6.88;5.38;;;;;;;19.95;66.07;99686.78;3621971;39;20396;-55
2021/07/03 03:35:54;;;;;;;6.28;5.63;;;;;;;19.96;66.10;99680.50;3622231;39;20139;-52
2021/07/03 03:38:40;;;;;;;6.57;5.88;;;;;;;19.95;65.58;99687.63;3621743;39;20163;-54
2021/07/03 03:41:26;;;;;;;7.05;5.43;;;;;;;19.94;65.58;99679.78;3624341;39;20397;-55
2021/07/03 03:44:12;;;;;;;8.27;6.03;;;;;;;19.92;66.00;99687.06;3621688;39;20115;-53
2021/07/03 03:46:58;;;;;;;11.10;5.82;;;;;;;19.91;66.20;99690.69;3621106;39;20380;-55
2021/07/03 03:49:44;;;;;;;7.28;5.22;;;;;;;19.92;65.90;99679.06;3616851;39;20306;-57
2021/07/03 03:52:31;;;;;;;7.47;5.80;;;;;;;19.91;66.11;99686.22;3616422;39;20308;-52
2021/07/03 03:55:17;;;;;;;7.35;6.20;;;;;;;19.92;66.20;99687.06;3616755;39;20038;-55
2021/07/03 03:58:03;;;;;;;8.90;6.25;;;;;;;19.91;65.94;99690.69;3616689;39;20054;-57
2021/07/03 04:00:49;;;;;;;7.30;6.05;;;;;;;19.89;66.02;99685.50;3616477;39;20067;-57
2021/07/03 04:03:35;;;;;;;10.02;6.05;;;;;;;19.89;66.26;99687.31;3616951;39;20259;-57
2021/07/03 04:06:21;;;;;;;7.60;6.15;;;;;;;19.88;66.10;99688.31;3616448;39;20054;-53
2021/07/03 04:09:08;;;;;;;11.15;6.95;;;;;;;19.88;66.36;99682.97;3617218;39;20043;-56
2021/07/03 04:11:55;;;;;;;9.35;7.07;;;;;;;19.88;66.95;99685.66;3617043;39;20282;-55
2021/07/03 04:14:41;;;;;;;7.38;5.68;;;;;;;19.88;66.69;99686.47;3617739;39;20037;-56
2021/07/03 04:17:28;;;;;;;8.30;7.07;;;;;;;19.88;66.92;99686.47;3616893;39;20038;-57
2021/07/03 04:20:14;;;;;;;8.45;6.63;;;;;;;19.88;66.54;99690.97;3616711;39;20116;-56
2021/07/03 04:23:00;;;;;;;12.23;6.22;;;;;;;19.89;67.00;99692.66;3616805;39;20037;-55
2021/07/03 04:25:47;;;;;;;7.55;6.05;;;;;;;19.88;66.66;99693.63;3616309;39;20038;-56
2021/07/03 04:28:33;;;;;;;8.02;6.07;;;;;;;19.86;66.61;99693.75;3616762;39;20047;-57
2021/07/03 04:31:19;;;;;;;8.43;6.60;;;;;;;19.85;67.05;99699.22;3616309;39;20091;-57
2021/07/03 04:34:05;;;;;;;8.73;6.50;;;;;;;19.85;66.69;99691.22;3616867;39;20309;-56
2021/07/03 04:36:53;;;;;;;10.23;7.90;;;;;;;19.86;67.24;99687.59;3616610;39;20039;-59
2021/07/03 04:39:39;;;;;;;8.30;6.30;;;;;;;19.86;67.34;99687.59;3616189;39;20154;-60
2021/07/03 04:42:26;;;;;;;9.98;7.32;;;;;;;19.89;67.29;99689.97;3616300;39;20038;-57
2021/07/03 04:45:12;;;;;;;8.55;7.38;;;;;;;19.90;67.18;99684.53;3616302;39;20030;-57
2021/07/03 04:47:58;;;;;;;8.05;6.40;;;;;;;19.91;67.37;99685.38;3616636;39;20091;-54
2021/07/03 04:50:44;;;;;;;8.05;6.00;;;;;;;19.92;67.35;99679.06;3616307;39;20052;-54
2021/07/03 04:53:30;;;;;;;8.02;7.18;;;;;;;19.93;66.83;99675.44;3615957;39;20042;-54
2021/07/03 04:56:17;;;;;;;7.57;6.25;;;;;;;19.91;67.16;99686.22;3616173;39;20045;-53
2021/07/03 04:59:05;;;;;;;8.80;6.97;;;;;;;19.91;67.39;99690.69;3616275;39;20109;-54
2021/07/03 05:01:50;;;;;;;11.43;6.80;;;;;;;19.92;66.99;99693.22;3616004;39;20061;-55
2021/07/03 05:04:41;;;;;;;7.78;6.78;;;;;;;19.93;67.05;99694.06;3616764;39;20046;-56
2021/07/03 05:07:27;;;;;;;8.40;6.05;;;;;;;19.95;66.62;99697.44;3616157;39;20095;-56
2021/07/03 05:10:14;;;;;;;7.13;5.85;;;;;;;19.94;67.14;99688.59;3616022;39;20113;-57
2021/07/03 05:13:00;;;;;;;8.75;6.40;;;;;;;19.95;66.95;99686.78;3615890;39;20054;-56
2021/07/03 05:15:47;;;;;;;8.27;6.43;;;;;;;19.94;66.52;99685.09;3615947;39;20314;-58
2021/07/03 05:18:34;;;;;;;8.70;7.30;;;;;;;19.93;66.90;99688.75;3616748;39;20180;-56
2021/07/03 05:21:19;;;;;;;8.50;7.15;;;;;;;19.92;66.99;99692.38;3616581;39;20297;-56
2021/07/03 05:24:06;;;;;;;10.35;7.22;;;;;;;19.92;67.39;99692.38;3616779;39;20104;-57
2021/07/03 05:26:52;;;;;;;8.63;6.45;;;;;;;19.92;67.42;99692.38;3616402;39;20502;-58
2021/07/03 05:29:38;;;;;;;10.02;6.97;;;;;;;19.92;67.23;99697.69;3616054;39;20042;-56
2021/07/03 05:32:25;;;;;;;8.60;7.07;;;;;;;19.94;67.23;99691.25;3616167;39;20037;-57
2021/07/03 05:35:12;;;;;;;10.32;7.30;;;;;;;19.97;67.05;99690.16;3616112;39;20050;-57
2021/07/03 05:37:58;;;;;;;8.05;7.05;;;;;;;19.99;67.49;99696.19;3616374;39;20372;-55
2021/07/03 05:40:45;;;;;;;7.63;6.25;;;;;;;20.02;67.31;99687.97;3616331;39;20135;-58
2021/07/03 05:43:32;;;;;;;7.38;5.97;;;;;;;20.03;67.26;99687.00;3615997;39;20113;-54
2021/07/03 05:46:18;;;;;;;8.95;6.20;;;;;;;20.06;67.39;99692.88;3615911;39;20054;-55
2021/07/03 05:49:05;;;;;;;8.57;6.72;;;;;;;20.09;67.24;99689.94;3616729;39;20038;-56
2021/07/03 05:51:51;;;;;;;7.35;6.25;;;;;;;20.13;67.28;99690.53;3616021;39;20325;-56
2021/07/03 05:54:37;;;;;;;8.93;6.63;;;;;;;20.18;66.89;99698.09;3616787;39;20038;-57
2021/07/03 05:57:26;;;;;;;7.30;6.57;;;;;;;20.22;66.89;99697.72;3616100;39;20034;-56
2021/07/03 06:00:14;;;;;;;7.05;6.00;;;;;;;20.26;66.70;99685.84;3615705;39;20087;-57
2021/07/03 06:02:59;;;;;;;9.30;6.90;;;;;;;20.31;66.84;99696.91;3616108;39;20120;-55
2021/07/03 06:05:47;;;;;;;7.88;6.78;;;;;;;20.36;66.69;99697.34;3617880;39;20058;-57
2021/07/03 06:08:33;;;;;;;7.75;6.35;;;;;;;20.42;66.69;99698.69;3617458;39;20123;-56
2021/07/03 06:11:19;;;;;;;7.32;6.60;;;;;;;20.48;66.40;99707.94;3617217;39;20077;-57
2021/07/03 06:14:05;;;;;;;8.27;5.95;;;;;;;20.53;66.84;99708.38;3618108;39;20038;-59
2021/07/03 06:16:51;;;;;;;7.03;6.28;;;;;;;20.58;66.11;99701.66;3617101;39;20067;-60
2021/07/03 06:19:37;;;;;;;6.82;6.13;;;;;;;20.63;66.00;99711.91;3616969;39;20058;-60
2021/07/03 06:22:24;;;;;;;10.30;5.85;;;;;;;20.65;65.82;99708.13;3617357;39;20116;-59
2021/07/03 06:25:11;;;;;;;9.82;6.22;;;;;;;20.68;65.70;99710.53;3617568;39;20042;-60
2021/07/03 06:27:57;;;;;;;7.88;6.28;;;;;;;20.70;66.11;99713.06;3617647;39;20075;-62
2021/07/03 06:30:43;;;;;;;6.78;6.00;;;;;;;20.72;66.07;99707.59;3616753;39;20038;-61
2021/07/03 06:33:29;;;;;;;7.43;5.80;;;;;;;20.74;65.82;99709.13;3617308;39;20285;-61
2021/07/03 06:36:15;;;;;;;8.48;6.80;;;;;;;20.77;65.39;99711.50;3616959;39;20301;-60
2021/07/03 06:39:03;;;;;;;7.90;6.40;;;;;;;20.80;65.84;99716.56;3617094;39;20112;-61
2021/07/03 06:41:49;;;;;;;7.78;6.10;;;;;;;20.84;65.40;99718.00;3616890;39;20043;-57
2021/07/03 06:44:35;;;;;;;7.32;6.57;;;;;;;20.88;65.92;99730.06;3617598;39;20038;-62
2021/07/03 06:47:21;;;;;;;8.05;6.50;;;;;;;20.95;65.72;99720.53;3616828;39;20203;-58
2021/07/03 06:50:09;;;;;;;8.63;6.43;;;;;;;20.98;65.55;99727.41;3616818;39;20041;-59
2021/07/03 06:52:55;;;;;;;9.07;6.65;;;;;;;21.00;65.18;99728.94;3616740;39;20523;-57
2021/07/03 06:55:42;;;;;;;7.63;6.50;;;;;;;21.04;64.95;99718.03;3617083;39;20034;-57
2021/07/03 06:58:40;;;;;;;8.43;6.88;;;;;;;21.05;65.16;99728.56;3617260;39;20061;-57
2021/07/03 07:01:26;;;;;;;7.28;6.47;;;;;;;21.05;64.99;99725.91;3617023;39;20116;-56
2021/07/03 07:04:12;;;;;;;7.63;6.30;;;;;;;21.07;65.11;99731.09;3617650;39;20224;-58
2021/07/03 07:06:58;;;;;;;8.23;6.57;;;;;;;21.10;65.03;99715.66;3616879;39;20075;-59
2021/07/03 07:09:44;;;;;;;6.35;5.75;;;;;;;21.20;65.07;99726.31;3619186;39;20042;-56
2021/07/03 07:12:32;;;;;;;7.25;6.05;;;;;;;21.28;65.06;99726.50;3621779;39;20325;-53
2021/07/03 07:15:18;;;;;;;7.85;6.78;;;;;;;21.34;64.38;99728.59;3623255;39;20071;-54
2021/07/03 07:18:04;;;;;;;6.97;6.13;;;;;;;21.35;64.48;99732.94;3621649;39;20118;-52
2021/07/03 07:20:50;;;;;;;7.47;6.55;;;;;;;21.37;64.00;99740.81;3623964;39;20112;-57
2021/07/03 07:23:36;;;;;;;7.65;6.00;;;;;;;21.37;64.15;99730.97;3623475;39;20461;-55
2021/07/03 07:26:23;;;;;;;9.70;6.55;;;;;;;21.41;64.32;99740.38;3620840;39;20030;-58
2021/07/03 07:29:10;;;;;;;8.88;6.82;;;;;;;21.41;63.85;99734.22;3625598;39;20087;-55
2021/07/03 07:31:56;;;;;;;7.82;6.85;;;;;;;21.40;63.71;99736.03;3636476;39;20095;-56
2021/07/03 07:34:43;;;;;;;7.85;6.85;;;;;;;21.40;64.31;99736.03;3637681;39;20045;-55
2021/07/03 07:37:30;;;;;;;8.35;7.15;;;;;;;21.42;64.08;99739.41;3636629;39;20042;-56
2021/07/03 07:40:17;;;;;;;8.18;7.00;;;;;;;21.41;64.16;99743.03;3637262;39;20061;-57
2021/07/03 07:43:03;;;;;;;9.40;7.13;;;;;;;21.41;63.85;99745.72;3636556;39;20114;-53
2021/07/03 07:45:52;;;;;;;10.40;6.93;;;;;;;21.40;64.20;99752.03;3636986;39;20061;-51
2021/07/03 07:48:40;;;;;;;8.50;6.55;;;;;;;21.40;63.75;99746.69;3636870;39;20041;-49
2021/07/03 07:51:27;;;;;;;9.05;6.85;;;;;;;21.43;64.32;99740.25;3636618;39;20030;-51
2021/07/03 07:54:12;;;;;;;8.32;6.57;;;;;;;21.45;63.80;99744.47;3637338;39;20276;-55
2021/07/03 07:56:59;;;;;;;8.32;6.88;;;;;;;21.46;64.17;99751.50;3636739;39;20033;-49
2021/07/03 07:59:45;;;;;;;7.40;6.10;;;;;;;21.46;63.74;99746.16;3637137;39;20037;-54
2021/07/03 08:02:32;;;;;;;7.28;6.47;;;;;;;21.46;63.68;99740.81;3636417;39;20427;-52
2021/07/03 08:05:18;;;;;;;8.35;6.03;;;;;;;21.46;63.80;99754.16;3636574;39;20037;-56
2021/07/03 08:08:06;;;;;;;8.48;7.25;;;;;;;21.44;63.84;99755.25;3637135;39;20086;-56
2021/07/03 08:10:52;;;;;;;7.18;6.47;;;;;;;21.40;63.73;99746.69;3636465;39;20115;-55
2021/07/03 08:13:40;;;;;;;8.48;6.75;;;;;;;21.38;64.30;99758.50;3634992;39;20300;-45
2021/07/03 08:16:27;;;;;;;7.05;6.00;;;;;;;21.41;63.69;99756.38;3624209;39;20045;-51
2021/07/03 08:19:15;;;;;;;8.38;7.20;;;;;;;21.41;63.52;99753.72;3627011;39;20045;-56
2021/07/03 08:22:02;;;;;;;7.85;6.40;;;;;;;21.42;63.63;99755.41;3626995;39;20103;-52
2021/07/03 08:24:48;;;;;;;7.85;7.05;;;;;;;21.40;63.39;99757.38;3624255;39;20042;-49
2021/07/03 08:27:34;;;;;;;7.90;7.10;;;;;;;21.42;63.38;99750.06;3621036;39;20033;-52
2021/07/03 08:30:21;;;;;;;8.70;7.50;;;;;;;21.43;63.58;99751.75;3623779;39;20119;-50
2021/07/03 08:33:07;;;;;;;8.43;7.53;;;;;;;21.46;64.30;99748.81;3626154;39;20088;-53
2021/07/03 08:35:54;;;;;;;8.65;7.60;;;;;;;21.51;64.36;99743.06;3623127;39;20042;-51
2021/07/03 08:38:40;;;;;;;8.18;6.78;;;;;;;21.58;64.12;99750.34;3626567;39;20355;-49
2021/07/03 08:41:27;;;;;;;8.55;7.63;;;;;;;21.67;64.05;99745.16;3625727;39;20045;-53
2021/07/03 08:44:16;;;;;;;9.13;7.82;;;;;;;21.77;64.62;99754.84;3626566;39;20435;-50
2021/07/03 08:47:03;;;;;;;10.30;8.07;;;;;;;21.86;63.94;99755.78;3624121;39;20103;-53
2021/07/03 08:49:53;;;;;;;9.82;8.13;;;;;;;21.92;63.71;99763.25;3621353;39;20066;-50
2021/07/03 08:52:42;;;;;;;11.38;8.40;;;;;;;21.91;63.34;99766.91;3622138;39;20412;-58
2021/07/03 08:55:30;;;;;;;8.88;7.68;;;;;;;21.86;63.73;99763.78;3620379;39;20124;-55
2021/07/03 08:58:17;;;;;;;10.80;8.55;;;;;;;21.79;63.82;99760.88;3621668;39;20435;-56
2021/07/03 09:01:04;;;;;;;9.50;7.93;;;;;;;21.76;63.83;99760.31;3623850;39;20514;-55
2021/07/03 09:03:52;;;;;;;10.43;8.50;;;;;;;21.75;63.52;99761.31;3620427;39;20325;-56
2021/07/03 09:06:38;;;;;;;10.43;8.70;;;;;;;21.75;63.53;99762.13;3619344;39;20034;-56
2021/07/03 09:09:29;;;;;;;9.45;7.90;;;;;;;21.75;63.91;99758.63;3620828;39;20041;-54
2021/07/03 09:12:14;;;;;;;9.40;7.67;;;;;;;21.78;64.11;99758.34;3621619;39;20067;-54
2021/07/03 09:15:10;;;;;;;9.65;7.70;;;;;;;21.78;64.04;99769.00;3613042;39;20041;-55
2021/07/03 09:18:00;;;;;;;10.27;7.10;;;;;;;21.78;63.46;99764.53;3620191;39;20042;-56
2021/07/03 09:20:52;;;;;;;10.45;6.80;;;;;;;21.77;63.76;99765.50;3620693;39;20107;-54
2021/07/03 09:23:40;;;;;;;10.45;6.53;;;;;;;21.78;63.90;99767.19;3621446;39;20033;-54
2021/07/03 09:26:27;;;;;;;9.77;6.57;;;;;;;21.78;64.23;99767.19;3615064;39;20482;-54
2021/07/03 09:29:13;;;;;;;8.85;5.97;;;;;;;21.82;63.98;99763.25;3616127;39;20113;-54
2021/07/03 09:32:08;;;;;;;8.38;5.43;;;;;;;21.90;63.76;99773.22;3615227;39;20494;-53
2021/07/03 09:34:54;;;;;;;7.40;5.30;;;;;;;21.97;63.67;99777.00;3607062;39;20038;-55
2021/07/03 09:37:40;;;;;;;9.43;5.93;;;;;;;22.04;64.15;99775.47;3615233;39;20072;-55
2021/07/03 09:40:30;;;;;;;7.80;5.85;;;;;;;22.09;63.78;99770.56;3616953;39;20114;-53
2021/07/03 09:43:17;;;;;;;7.32;5.50;;;;;;;22.13;63.47;99766.59;3619463;39;20124;-56
2021/07/03 09:46:03;;;;;;;6.65;5.60;;;;;;;22.19;63.10;99774.03;3625143;39;20122;-57
2021/07/03 09:48:57;;;;;;;7.70;5.63;;;;;;;22.28;63.91;99767.00;3623328;39;20047;-56
2021/07/03 09:51:45;;;;;;;7.22;5.15;;;;;;;22.39;63.42;99771.31;3615603;39;20071;-54
2021/07/03 09:54:32;;;;;;;8.07;5.72;;;;;;;22.44;62.74;99774.38;3617021;39;20071;-57
2021/07/03 09:57:19;;;;;;;9.00;6.50;;;;;;;22.47;63.08;99771.41;3625537;39;20046;-51
2021/07/03 10:00:10;;;;;;;9.95;6.38;;;;;;;22.35;62.76;99778.78;3624971;39;20050;-54
2021/07/03 10:02:59;;;;;;;9.38;6.78;;;;;;;22.14;63.69;99786.13;3625581;39;20042;-59
2021/07/03 10:05:51;;;;;;;12.30;8.15;;;;;;;21.73;65.01;99784.59;3625296;39;20088;-55
2021/07/03 10:08:40;;;;;;;10.57;8.25;;;;;;;21.11;67.37;99788.47;3625144;39;20053;-54
2021/07/03 10:11:29;;;;;;;11.88;8.18;;;;;;;20.78;68.17;99785.13;3625404;39;20049;-55
2021/07/03 10:14:16;;;;;;;9.38;7.45;;;;;;;20.73;68.23;99783.84;3625022;39;20042;-55
2021/07/03 10:17:04;;;;;;;8.95;7.72;;;;;;;20.69;67.77;99776.13;3625277;39;20524;-56
2021/07/03 10:19:51;;;;;;;9.90;7.28;;;;;;;20.92;67.76;99782.09;3625260;39;20423;-54
2021/07/03 10:22:37;;;;;;;11.05;7.28;;;;;;;21.12;66.78;99782.13;3625379;39;20317;-53
2021/07/03 10:25:32;;;;;;;10.35;7.60;;;;;;;21.24;66.62;99773.09;3624911;39;20041;-57
2021/07/03 10:28:29;;;;;;;9.55;8.07;;;;;;;21.44;65.64;99768.59;3621306;39;20127;-54
2021/07/03 10:31:15;;;;;;;12.52;7.80;;;;;;;21.94;64.76;99769.28;3619585;39;20116;-54
2021/07/03 10:34:27;;;;;;;;;;;;;;;22.48;63.09;99765.91;3622515;39;20427;-50
2021/07/03 10:37:16;;;;;;;11.85;7.45;;;;;;;23.06;61.03;99760.31;3625048;39;20015;-53
2021/07/03 10:40:14;;;;;;;8.32;7.28;;;;;;;23.36;60.63;99761.81;3624686;39;20062;-53
2021/07/03 10:43:10;;;;;;;8.93;8.00;;;;;;;23.48;60.13;99748.19;3624424;39;20347;-57
2021/07/03 10:45:57;;;;;;;9.88;7.90;;;;;;;23.13;61.43;99746.38;3614292;39;20062;-52
2021/07/03 10:48:43;;;;;;;11.77;6.93;;;;;;;23.00;61.32;99754.72;3612499;39;20100;-55
2021/07/03 10:51:36;;;;;;;8.82;7.82;;;;;;;23.00;61.07;99755.56;3624680;39;20493;-56
2021/07/03 10:54:28;;;;;;;8.73;7.85;;;;;;;23.21;60.88;99747.28;3618287;39;20452;-58
2021/07/03 10:57:25;;;;;;;8.07;7.22;;;;;;;23.44;60.04;99747.66;3622943;39;20058;-57
2021/07/03 11:00:12;;;;;;;9.52;7.50;;;;;;;23.57;59.82;99750.84;3626331;39;20045;-59
2021/07/03 11:02:59;;;;;;;9.05;7.32;;;;;;;23.64;59.71;99753.72;3624299;39;20296;-59
2021/07/03 11:05:45;;;;;;;11.50;8.30;;;;;;;23.63;59.80;99757.41;3625444;39;20564;-63
2021/07/03 11:08:39;;;;;;;8.90;8.00;;;;;;;23.58;60.00;99759.69;3628823;39;20478;-62
2021/07/03 11:11:25;;;;;;;8.68;7.78;;;;;;;23.71;59.40;99741.41;3622433;39;20034;-60
2021/07/03 11:14:18;;;;;;;10.30;8.48;;;;;;;23.71;59.67;99747.59;3625814;39;20118;-60
2021/07/03 11:17:05;;;;;;;9.32;8.35;;;;;;;23.87;58.99;99749.56;3624123;39;20111;-54
2021/07/03 11:19:53;;;;;;;9.25;8.07;;;;;;;23.92;58.53;99749.91;3624039;39;20057;-55
2021/07/03 11:22:44;;;;;;;10.82;7.78;;;;;;;24.05;58.62;99740.66;3627797;39;20183;-60
2021/07/03 11:25:36;;;;;;;8.73;7.38;;;;;;;24.16;58.58;99743.09;3621030;39;20068;-57
2021/07/03 11:28:24;;;;;;;9.45;7.88;;;;;;;24.12;58.50;99739.00;3627192;39;20049;-60
2021/07/03 11:31:10;;;;;;;11.52;7.53;;;;;;;24.01;58.65;99751.69;3626681;39;20330;-60
2021/07/03 11:33:57;;;;;;;7.80;7.00;;;;;;;24.13;58.59;99746.88;3624587;39;20107;-50
2021/07/03 11:36:43;;;;;;;8.65;7.60;;;;;;;24.40;57.44;99745.09;3626581;39;20046;-59
2021/07/03 11:39:30;;;;;;;8.57;7.50;;;;;;;24.55;57.32;99743.47;3616288;39;20026;-53
2021/07/03 11:42:27;;;;;;;9.25;7.97;;;;;;;24.67;57.33;99738.66;3624599;39;20415;-56
2021/07/03 11:45:16;;;;;;;10.10;7.78;;;;;;;24.54;57.50;99739.94;3624164;39;20370;-53
2021/07/03 11:48:08;;;;;;;8.63;7.32;;;;;;;24.40;57.62;99739.72;3625652;39;20382;-56
2021/07/03 11:50:56;;;;;;;9.18;7.22;;;;;;;24.38;57.43;99741.72;3627970;39;20586;-52
2021/07/03 11:53:46;;;;;;;8.18;7.38;;;;;;;24.37;57.52;99740.88;3623514;39;20119;-58
2021/07/03 11:56:32;;;;;;;8.57;7.68;;;;;;;24.50;57.14;99743.94;3624163;39;20127;-51
2021/07/03 11:59:20;;;;;;;6.97;6.35;;;;;;;24.52;57.08;99738.44;3624573;39;20062;-53
2021/07/03 12:02:06;;;;;;;7.50;6.38;;;;;;;24.72;55.77;99728.28;3624512;39;20046;-58
2021/07/03 12:04:52;;;;;;;7.65;6.72;;;;;;;24.81;55.32;99735.38;3626292;39;20041;-57
2021/07/03 12:07:38;;;;;;;6.93;6.10;;;;;;;24.78;55.43;99733.00;3624960;39;20115;-52
2021/07/03 12:10:37;;;;;;;7.10;6.40;;;;;;;24.80;55.18;99725.66;3625093;39;20095;-54
2021/07/03 12:13:25;;;;;;;7.78;6.97;;;;;;;25.07;54.79;99728.09;3623152;39;20046;-54
2021/07/03 12:16:14;;;;;;;7.25;6.50;;;;;;;24.92;54.84;99718.97;3624655;39;20083;-51
2021/07/03 12:19:00;;;;;;;8.25;6.63;;;;;;;24.62;55.71;99723.91;3616101;39;20038;-56
2021/07/03 12:21:46;;;;;;;8.18;6.20;;;;;;;24.39;55.98;99728.16;3624731;39;20037;-55
2021/07/03 12:24:33;;;;;;;7.13;6.15;;;;;;;24.23;56.27;99718.16;3625204;39;20160;-53
2021/07/03 12:27:24;;;;;;;7.32;6.30;;;;;;;24.30;55.80;99715.72;3624976;39;20107;-54
2021/07/03 12:30:11;;;;;;;8.88;6.13;;;;;;;24.42;55.39;99716.28;3617115;39;20095;-54
2021/07/03 12:33:09;;;;;;;7.45;5.40;;;;;;;24.53;55.13;99708.78;3624770;39;20041;-55
2021/07/03 12:35:55;;;;;;;6.93;5.78;;;;;;;24.90;54.32;99715.63;3623803;39;20411;-54
2021/07/03 12:38:42;;;;;;;5.78;4.90;;;;;;;25.18;53.40;99714.38;3624783;39;20123;-52
2021/07/03 12:41:27;;;;;;;6.32;5.30;;;;;;;25.54;52.35;99714.06;3624037;39;20108;-53
2021/07/03 12:44:15;;;;;;;4.93;4.43;;;;;;;25.75;51.97;99701.00;3624389;39;20045;-55
2021/07/03 12:47:02;;;;;;;5.50;4.88;;;;;;;25.59;51.58;99706.34;3624225;39;20096;-56
2021/07/03 12:49:53;;;;;;;7.65;4.95;;;;;;;25.26;52.51;99705.50;3623328;39;20309;-52
2021/07/03 12:52:42;;;;;;;6.32;5.50;;;;;;;25.57;51.89;99691.41;3625905;39;20304;-53
2021/07/03 12:55:36;;;;;;;6.88;4.80;;;;;;;25.87;51.01;99692.59;3623817;39;20448;-49
2021/07/03 12:58:24;;;;;;;5.22;4.72;;;;;;;25.80;51.10;99690.59;3623011;39;20038;-53
2021/07/03 13:01:10;;;;;;;5.82;4.90;;;;;;;25.53;51.31;99693.59;3625738;39;20033;-54
2021/07/03 13:03:56;;;;;;;6.10;5.00;;;;;;;25.31;51.87;99703.16;3624111;39;20046;-51
2021/07/03 13:06:43;;;;;;;5.30;4.80;;;;;;;25.02;51.85;99703.63;3622017;39;20050;-54